Terminal Aerodrome Forecast
Issued by NWS Paducah, KY

Home | Current Version | Previous Version | Text Only | Print | Product List | Glossary On
Versions: 1 2 3 4 5 6 7 8 9 10 11 12 13
513
FTUS43 KPAH 211725
TAFPAH
TAF
KPAH 211725Z 2118/2218 17009G16KT P6SM BKN050 OVC200
     FM220600 16009KT P6SM BKN035 OVC120
     FM221200 16010KT 6SM -SHRA BR BKN025 OVC040=

USA.gov is the U.S. government's official web portal to all federal, state and local government web resources and services.